createdAt,value
2019-01-29T00:02:02.684Z,96594.27
2019-01-29T00:04:51.488Z,96363.28
2019-01-29T00:07:40.278Z,96598.20
2019-01-29T00:10:29.076Z,96596.36
2019-01-29T00:13:17.857Z,96600.72
2019-01-29T00:16:06.734Z,96601.97
2019-01-29T00:19:03.250Z,96573.72
2019-01-29T00:21:52.051Z,96607.41
2019-01-29T00:24:40.839Z,96613.23
2019-01-29T00:27:29.644Z,96621.66
2019-01-29T00:30:37.619Z,96613.95
2019-01-29T00:33:26.421Z,96618.17
2019-01-29T00:36:15.206Z,96623.38
2019-01-29T00:42:19.241Z,96618.72
2019-01-29T00:45:28.947Z,96360.78
2019-01-29T00:48:17.731Z,96617.72
2019-01-29T00:51:06.605Z,96483.89
2019-01-29T00:53:55.458Z,96612.72
2019-01-29T00:56:44.287Z,96610.34
2019-01-29T00:59:33.053Z,96608.60
2019-01-29T01:02:21.863Z,96397.88
2019-01-29T01:05:03.292Z,96451.78
2019-01-29T01:07:52.098Z,96615.24
2019-01-29T01:10:40.882Z,96615.98
2019-01-29T01:13:29.692Z,96634.55
2019-01-29T01:16:18.475Z,96639.23
2019-01-29T01:19:07.359Z,96648.16
2019-01-29T01:21:56.153Z,96656.72
2019-01-29T01:24:44.964Z,96428.52
2019-01-29T01:31:02.151Z,96668.41
2019-01-29T01:33:51.207Z,96667.70
2019-01-29T01:36:40.014Z,96669.27
2019-01-29T01:39:28.802Z,96671.13
2019-01-29T01:42:17.604Z,96667.11
2019-01-29T01:45:27.303Z,96457.69
2019-01-29T01:48:35.128Z,96658.11
2019-01-29T01:51:23.907Z,96660.06
2019-01-29T01:54:12.705Z,96663.05
2019-01-29T01:57:01.487Z,96661.77
2019-01-29T01:59:50.295Z,96666.14
2019-01-29T02:02:39.079Z,96594.95
2019-01-29T02:05:20.887Z,96671.25
2019-01-29T02:08:09.755Z,96670.81
2019-01-29T02:10:58.588Z,96675.89
2019-01-29T02:13:47.445Z,96494.19
2019-01-29T02:19:43.981Z,96689.23
2019-01-29T02:22:32.766Z,96693.84
2019-01-29T02:25:21.571Z,96696.57
2019-01-29T02:28:10.377Z,96693.58
2019-01-29T02:30:59.187Z,96694.78
2019-01-29T02:33:47.975Z,96699.45
2019-01-29T02:36:36.785Z,96559.84
2019-01-29T02:39:25.565Z,96711.16
2019-01-29T02:42:14.377Z,96474.19
2019-01-29T02:45:03.187Z,96431.25
2019-01-29T02:47:51.977Z,96698.23
2019-01-29T02:50:40.783Z,96694.11
2019-01-29T02:53:29.577Z,96702.98
2019-01-29T02:56:37.411Z,96702.45
2019-01-29T02:59:26.202Z,96704.52
2019-01-29T03:02:15.004Z,96703.31
2019-01-29T03:04:57.048Z,96716.98
2019-01-29T03:07:45.926Z,96712.40
2019-01-29T03:10:34.732Z,96721.34
2019-01-29T03:13:23.525Z,96475.20
2019-01-29T03:16:12.330Z,96724.77
2019-01-29T03:22:08.983Z,96725.58
2019-01-29T03:24:57.892Z,96731.05
2019-01-29T03:27:46.694Z,96729.70
2019-01-29T03:30:35.482Z,96694.76
2019-01-29T03:33:24.308Z,96733.47
2019-01-29T03:36:13.135Z,96735.16
2019-01-29T03:39:01.925Z,96743.18
2019-01-29T03:41:50.731Z,96748.25
2019-01-29T03:44:39.513Z,96746.62
2019-01-29T03:47:28.339Z,96750.01
2019-01-29T03:50:38.031Z,96675.78
2019-01-29T03:53:26.851Z,96755.94
2019-01-29T03:56:15.641Z,96761.03
2019-01-29T03:59:04.590Z,96766.42
2019-01-29T04:01:53.407Z,96764.30
2019-01-29T04:04:34.556Z,96769.44
2019-01-29T04:07:23.426Z,96766.37
2019-01-29T04:10:33.121Z,96770.19
2019-01-29T04:13:21.933Z,96771.45
2019-01-29T04:16:10.723Z,96769.42
2019-01-29T04:18:59.542Z,96552.70
2019-01-29T04:21:48.403Z,96773.84
2019-01-29T04:27:31.120Z,96778.42
2019-01-29T04:30:40.818Z,96789.48
2019-01-29T04:33:29.621Z,96770.48
2019-01-29T04:36:18.418Z,96794.56
2019-01-29T04:39:07.970Z,96793.23
2019-01-29T04:41:56.826Z,96789.01
2019-01-29T04:44:45.661Z,96786.92
2019-01-29T04:47:34.445Z,96789.88
2019-01-29T04:50:23.320Z,96791.60
2019-01-29T04:53:12.116Z,96796.27
2019-01-29T04:56:00.911Z,96805.61
2019-01-29T04:58:49.705Z,96809.84
2019-01-29T05:01:38.513Z,96808.57
2019-01-29T05:04:27.303Z,96805.98
2019-01-29T05:07:09.372Z,96681.90
2019-01-29T05:09:58.161Z,96814.03
2019-01-29T05:12:46.972Z,96680.63
2019-01-29T05:15:35.752Z,96809.70
2019-01-29T05:18:24.567Z,96810.10
2019-01-29T05:21:13.364Z,96802.87
2019-01-29T05:24:06.847Z,96801.50
2019-01-29T05:26:52.674Z,96545.96
2019-01-29T05:29:41.467Z,96795.51
2019-01-29T05:32:30.268Z,96792.22
2019-01-29T05:35:19.060Z,96714.15
2019-01-29T05:38:07.855Z,96790.55
2019-01-29T05:40:56.641Z,96794.34
2019-01-29T05:43:45.449Z,96793.55
2019-01-29T05:49:29.359Z,96545.50
2019-01-29T05:52:18.150Z,96799.39
2019-01-29T05:55:27.864Z,96799.00
2019-01-29T05:58:16.654Z,96804.10
2019-01-29T06:01:05.465Z,96807.53
2019-01-29T06:03:46.989Z,96801.19
2019-01-29T06:06:35.880Z,96596.18
2019-01-29T06:09:24.708Z,96771.20
2019-01-29T06:12:13.540Z,96808.37
2019-01-29T06:15:02.336Z,96810.48
2019-01-29T06:17:51.135Z,96810.58
2019-01-29T06:20:39.926Z,96814.01
2019-01-29T06:23:29.061Z,96808.95
2019-01-29T06:26:17.847Z,96808.55
2019-01-29T06:29:06.653Z,96808.58
2019-01-29T06:31:55.449Z,96809.41
2019-01-29T06:34:44.264Z,96669.69
2019-01-29T06:37:33.054Z,96823.37
2019-01-29T06:40:42.825Z,96827.18
2019-01-29T06:43:31.628Z,96831.81
2019-01-29T06:46:20.414Z,96831.81
2019-01-29T06:49:09.299Z,96836.05
2019-01-29T06:51:58.093Z,96842.80
2019-01-29T06:54:46.969Z,96836.06
2019-01-29T06:57:35.754Z,96846.19
2019-01-29T07:00:24.454Z,96571.75
2019-01-29T07:03:13.242Z,96846.61
2019-01-29T07:06:02.041Z,96843.64
2019-01-29T07:08:50.839Z,96851.27
2019-01-29T07:11:39.651Z,96843.64
2019-01-29T07:14:28.445Z,96846.61
2019-01-29T07:20:13.495Z,96848.30
2019-01-29T07:23:02.286Z,96845.77
2019-01-29T07:25:51.160Z,96852.52
2019-01-29T07:28:39.952Z,96850.39
2019-01-29T07:31:28.753Z,96855.88
2019-01-29T07:34:17.540Z,96849.12
2019-01-29T07:37:06.345Z,96852.09
2019-01-29T07:39:55.152Z,96853.77
2019-01-29T07:42:43.960Z,96857.61
2019-01-29T07:45:32.777Z,96862.22
2019-01-29T07:48:21.583Z,96858.86
2019-01-29T07:51:10.442Z,96867.31
2019-01-29T07:53:59.251Z,96866.47
2019-01-29T07:56:48.050Z,96871.11
2019-01-29T07:59:36.843Z,96877.02
2019-01-29T08:02:18.566Z,96878.69
2019-01-29T08:05:28.284Z,96877.00
2019-01-29T08:08:17.091Z,96636.77
2019-01-29T08:11:05.879Z,96880.78
2019-01-29T08:13:54.684Z,96879.50
2019-01-29T08:16:43.463Z,96888.72
2019-01-29T08:19:32.266Z,96863.84
2019-01-29T08:22:21.063Z,96795.41
2019-01-29T08:25:30.009Z,96884.49
2019-01-29T08:28:18.815Z,96862.99
2019-01-29T08:31:07.600Z,96884.50
2019-01-29T08:33:56.407Z,96893.38
2019-01-29T08:36:45.192Z,96887.05
2019-01-29T08:39:34.006Z,96892.06
2019-01-29T08:42:41.813Z,96896.75
2019-01-29T08:45:30.751Z,96668.69
2019-01-29T08:48:19.539Z,96894.80
2019-01-29T08:51:08.344Z,96893.11
2019-01-29T08:53:57.141Z,96899.89
2019-01-29T08:56:45.948Z,96900.28
2019-01-29T08:59:34.834Z,96904.47
2019-01-29T09:02:16.151Z,96904.55
2019-01-29T09:05:26.196Z,96759.80
2019-01-29T09:08:15.005Z,96905.39
2019-01-29T09:11:03.792Z,96754.31
2019-01-29T09:13:52.600Z,96900.73
2019-01-29T09:16:41.491Z,96793.95
2019-01-29T09:19:30.291Z,96899.39
2019-01-29T09:22:19.105Z,96898.57
2019-01-29T09:25:28.795Z,96663.41
2019-01-29T09:28:36.628Z,96886.78
2019-01-29T09:31:25.414Z,96647.15
2019-01-29T09:34:14.219Z,96890.56
2019-01-29T09:37:03.013Z,96883.30
2019-01-29T09:39:51.815Z,96673.62
2019-01-29T09:42:40.619Z,96884.84
2019-01-29T09:45:29.492Z,96682.96
2019-01-29T09:51:46.689Z,96881.93
2019-01-29T09:54:35.474Z,96882.48
2019-01-29T09:57:24.349Z,96878.11
2019-01-29T10:00:34.083Z,96876.34
2019-01-29T10:03:14.257Z,96875.17
2019-01-29T10:06:03.098Z,96874.94
2019-01-29T10:08:51.960Z,96873.92
2019-01-29T10:11:40.831Z,96870.13
2019-01-29T10:14:29.679Z,96872.92
2019-01-29T10:20:28.242Z,96859.05
2019-01-29T10:23:17.076Z,96852.95
2019-01-29T10:26:05.952Z,96857.41
2019-01-29T10:28:54.781Z,96854.76
2019-01-29T10:31:43.687Z,96850.78
2019-01-29T10:34:32.599Z,96847.94
2019-01-29T10:37:21.491Z,96843.68
2019-01-29T10:40:31.262Z,96840.31
2019-01-29T10:43:20.130Z,96836.37
2019-01-29T10:49:16.678Z,96681.17
2019-01-29T10:52:05.735Z,96833.75
2019-01-29T10:54:54.548Z,96590.47
2019-01-29T10:57:43.583Z,96619.31
2019-01-29T11:00:53.290Z,96813.52
2019-01-29T11:03:34.702Z,96814.59
2019-01-29T11:06:23.485Z,96781.80
2019-01-29T11:09:12.659Z,96801.64
2019-01-29T11:12:01.470Z,96791.17
2019-01-29T11:14:50.259Z,96793.68
2019-01-29T11:17:39.066Z,96582.48
2019-01-29T11:20:27.858Z,96789.32
2019-01-29T11:23:16.656Z,96789.56
2019-01-29T11:26:05.886Z,96648.23
2019-01-29T11:28:54.758Z,96779.60
2019-01-29T11:31:43.566Z,96772.66
2019-01-29T11:34:32.351Z,96772.58
2019-01-29T11:37:21.169Z,96768.43
2019-01-29T11:40:30.255Z,96767.71
2019-01-29T11:43:19.058Z,96765.23
2019-01-29T11:46:08.018Z,96766.31
2019-01-29T11:48:56.835Z,96760.12
2019-01-29T11:51:45.627Z,96756.56
2019-01-29T11:54:27.366Z,96759.62
2019-01-29T11:57:16.159Z,96756.93
2019-01-29T12:00:44.910Z,96540.41
2019-01-29T12:03:33.694Z,96749.58
2019-01-29T12:06:22.517Z,96743.69
2019-01-29T12:09:11.382Z,96738.91
2019-01-29T12:12:00.205Z,96740.70
2019-01-29T12:14:49.128Z,96733.45
2019-01-29T12:17:37.907Z,96729.95
2019-01-29T12:20:26.778Z,96730.83
2019-01-29T12:23:15.656Z,96725.26
2019-01-29T12:26:12.689Z,96726.17
2019-01-29T12:28:55.127Z,96721.95
2019-01-29T12:31:44.098Z,96723.72
2019-01-29T12:34:32.900Z,96505.50
2019-01-29T12:37:21.697Z,96523.66
2019-01-29T12:40:31.404Z,96726.11
2019-01-29T12:43:20.219Z,96717.16
2019-01-29T12:46:09.072Z,96709.88
2019-01-29T12:48:57.874Z,96708.99
2019-01-29T12:54:48.676Z,96436.11
2019-01-29T12:57:37.476Z,96693.59
2019-01-29T13:03:25.524Z,96620.63
2019-01-29T13:06:14.357Z,96506.72
2019-01-29T13:11:59.032Z,96607.01
2019-01-29T13:14:47.893Z,96675.02
2019-01-29T13:17:36.683Z,96643.70
2019-01-29T13:20:25.529Z,96452.20
2019-01-29T13:23:14.343Z,96681.61
2019-01-29T13:26:03.124Z,96676.28
2019-01-29T13:28:51.938Z,96484.92
2019-01-29T13:31:40.732Z,96676.28
2019-01-29T13:34:29.558Z,96673.82
2019-01-29T13:37:18.363Z,96664.20
2019-01-29T13:43:35.887Z,96664.19
2019-01-29T13:46:15.563Z,96658.17
2019-01-29T13:49:04.371Z,96421.86
2019-01-29T13:51:53.169Z,96654.87
2019-01-29T13:54:41.975Z,96654.31
2019-01-29T13:57:30.802Z,96461.20
2019-01-29T14:00:40.507Z,96643.86
2019-01-29T14:03:29.313Z,96631.00
2019-01-29T14:06:18.117Z,96632.13
2019-01-29T14:12:02.991Z,96628.79
2019-01-29T14:14:51.775Z,96629.30
2019-01-29T14:17:40.587Z,96621.09
2019-01-29T14:20:29.376Z,96415.45
2019-01-29T14:23:18.182Z,96626.03
2019-01-29T14:26:07.046Z,96615.88
2019-01-29T14:28:55.841Z,96614.30
2019-01-29T14:31:44.650Z,96606.26
2019-01-29T14:34:33.459Z,96612.91
2019-01-29T14:37:42.461Z,96606.70
2019-01-29T14:43:47.790Z,96601.59
2019-01-29T14:46:29.149Z,96597.30
2019-01-29T14:49:17.945Z,96384.62
2019-01-29T14:52:06.824Z,96590.23
2019-01-29T14:54:55.607Z,96396.43
2019-01-29T14:57:44.418Z,96592.34
2019-01-29T15:00:54.167Z,96594.05
2019-01-29T15:03:42.924Z,96445.83
2019-01-29T15:06:32.920Z,96604.34
2019-01-29T15:09:22.239Z,96416.24
2019-01-29T15:12:11.111Z,96579.59
2019-01-29T15:18:26.744Z,96407.01
2019-01-29T15:24:23.295Z,96569.20
2019-01-29T15:27:12.076Z,96570.36
2019-01-29T15:30:00.926Z,96425.41
2019-01-29T15:32:49.704Z,96565.27
2019-01-29T15:35:38.583Z,96552.12
2019-01-29T15:38:27.364Z,96553.34
2019-01-29T15:41:16.173Z,96552.09
2019-01-29T15:44:05.027Z,96337.16
2019-01-29T15:46:51.023Z,96554.42
2019-01-29T15:49:39.825Z,96544.14
2019-01-29T15:52:28.924Z,96543.34
2019-01-29T15:55:18.078Z,96543.66
2019-01-29T16:01:22.394Z,96306.41
2019-01-29T16:04:11.178Z,96540.59
2019-01-29T16:06:59.994Z,96536.73
2019-01-29T16:09:48.784Z,96534.63
2019-01-29T16:12:37.588Z,96536.23
2019-01-29T16:18:42.510Z,96531.28
2019-01-29T16:21:31.359Z,96533.02
2019-01-29T16:24:20.143Z,96524.66
2019-01-29T16:27:08.948Z,96524.02
2019-01-29T16:29:58.050Z,96524.59
2019-01-29T16:32:46.843Z,96518.23
2019-01-29T16:38:51.819Z,96513.00
2019-01-29T16:41:33.869Z,96300.88
2019-01-29T16:44:22.684Z,96511.91
2019-01-29T16:47:11.469Z,96444.56
2019-01-29T16:50:00.276Z,96510.86
2019-01-29T16:52:49.086Z,96508.48
2019-01-29T16:55:38.062Z,96505.18
2019-01-29T16:58:26.904Z,96498.48
2019-01-29T17:04:30.500Z,96490.78
2019-01-29T17:07:19.284Z,96487.09
2019-01-29T17:10:28.313Z,96489.34
2019-01-29T17:13:17.126Z,96224.11
2019-01-29T17:16:05.945Z,96475.66
2019-01-29T17:18:54.740Z,96477.02
2019-01-29T17:21:43.543Z,96330.16
2019-01-29T17:24:32.331Z,96475.08
2019-01-29T17:27:21.147Z,96474.30
2019-01-29T17:30:02.373Z,96473.45
2019-01-29T17:32:51.186Z,96470.52
2019-01-29T17:36:00.899Z,96467.16
2019-01-29T17:38:49.706Z,96468.05
2019-01-29T17:41:31.702Z,96468.67
2019-01-29T17:44:20.491Z,96283.54
2019-01-29T17:47:09.304Z,96455.01
2019-01-29T17:49:58.104Z,96451.20
2019-01-29T17:52:46.915Z,96446.47
2019-01-29T17:59:04.705Z,96444.36
2019-01-29T18:05:22.055Z,96432.66
2019-01-29T18:08:10.868Z,96433.69
2019-01-29T18:10:59.669Z,96431.40
2019-01-29T18:13:48.459Z,96422.05
2019-01-29T18:16:37.296Z,96186.73
2019-01-29T18:19:26.106Z,96412.28
2019-01-29T18:22:14.934Z,96411.41
2019-01-29T18:28:32.194Z,96399.15
2019-01-29T18:31:20.982Z,96394.13
2019-01-29T18:34:09.850Z,96389.86
2019-01-29T18:36:58.644Z,96387.20
2019-01-29T18:39:47.830Z,96388.50
2019-01-29T18:42:30.495Z,96388.91
2019-01-29T18:45:20.063Z,96381.29
2019-01-29T18:48:08.921Z,96128.06
2019-01-29T18:50:57.822Z,96369.14
2019-01-29T18:53:46.810Z,96374.22
2019-01-29T18:56:36.126Z,96367.41
2019-01-29T18:59:25.422Z,96362.30
2019-01-29T19:02:14.669Z,96354.66
2019-01-29T19:14:43.247Z,96343.23
2019-01-29T19:27:38.619Z,96320.14
2019-01-29T19:30:49.168Z,96318.03
2019-01-29T19:33:31.600Z,96316.88
2019-01-29T19:42:55.523Z,96315.70
2019-01-29T19:52:29.152Z,96288.87
2019-01-29T19:58:47.700Z,96297.81
2019-01-29T20:05:12.081Z,96291.45
2019-01-29T20:17:34.381Z,96288.95
2019-01-29T20:26:50.879Z,96279.61
2019-01-29T20:32:52.909Z,96272.70
2019-01-29T20:35:53.777Z,96275.25
2019-01-29T20:49:03.669Z,96267.56
2019-01-29T21:07:38.021Z,96253.47
2019-01-29T21:11:01.242Z,96251.39
2019-01-29T21:13:57.958Z,96250.21
2019-01-29T21:23:38.783Z,96238.34
2019-01-29T21:29:26.484Z,96087.66
2019-01-29T21:32:08.758Z,96228.80
2019-01-29T21:34:57.755Z,96223.34
2019-01-29T21:38:05.781Z,96218.34
2019-01-29T21:40:54.676Z,96214.52
2019-01-29T21:43:43.566Z,96209.05
2019-01-29T21:46:32.409Z,96049.79
2019-01-29T21:49:21.214Z,96203.54
2019-01-29T21:52:10.054Z,96003.66
2019-01-29T21:54:58.858Z,96196.34
2019-01-29T21:57:47.761Z,96195.48
2019-01-29T22:00:57.471Z,96200.95
2019-01-29T22:03:46.300Z,96192.59
2019-01-29T22:06:35.095Z,96190.94
2019-01-29T22:09:23.967Z,96188.81
2019-01-29T22:12:12.788Z,95942.84
2019-01-29T22:15:01.608Z,96187.97
2019-01-29T22:17:50.409Z,96179.95
2019-01-29T22:20:39.294Z,96170.23
2019-01-29T22:23:28.110Z,96166.02
2019-01-29T22:26:16.917Z,96168.23
2019-01-29T22:29:05.733Z,96163.60
2019-01-29T22:31:47.293Z,95927.39
2019-01-29T22:34:36.110Z,96156.55
2019-01-29T22:37:24.911Z,96157.48
2019-01-29T22:40:34.630Z,96151.63
2019-01-29T22:43:23.429Z,96152.45
2019-01-29T22:46:12.243Z,95889.99
2019-01-29T22:49:01.040Z,96140.09
2019-01-29T22:51:49.853Z,95933.28
2019-01-29T22:54:38.643Z,95985.31
2019-01-29T22:57:27.471Z,96136.51
2019-01-29T23:00:56.830Z,96135.24
2019-01-29T23:03:45.646Z,96044.56
2019-01-29T23:06:55.354Z,96122.33
2019-01-29T23:10:03.263Z,96123.63
2019-01-29T23:12:52.137Z,96120.71
2019-01-29T23:18:35.761Z,96115.24
2019-01-29T23:21:24.586Z,96115.69
2019-01-29T23:27:21.146Z,96107.29
2019-01-29T23:30:29.339Z,96097.23
2019-01-29T23:33:10.992Z,96090.93
2019-01-29T23:35:59.798Z,95821.88
2019-01-29T23:38:48.681Z,96085.92
2019-01-29T23:41:37.539Z,96060.70
2019-01-29T23:44:26.484Z,96078.33
2019-01-29T23:47:15.300Z,96074.56
2019-01-29T23:53:32.803Z,96067.44
2019-01-29T23:56:21.680Z,96066.52
2019-01-29T23:59:10.493Z,96058.16
